CEB997 RPLL-RPMR
Flight info
| Callsign | CEB997 |
|---|---|
| Flight time | 1h 31m |
| Altitude | 35000 |
| Route | VERDE2V VERDE A461 SAJ W3 IOO B472 COT W19 MELBY MELBY3R |
| Aircraft | A320/M-SDE3FGHIRWY/LB1 |
Departure
| Time | 2026-04-20 14:47 |
|---|---|
| Airport | Ninoy Aquino International Airport (RPLL) |
Arrival
| Time | 2026-04-20 16:18 |
|---|---|
| Airport | General Santos International Airport (RPMR) |
| Time | Latitude | Longitude | Altitude | Speed | Heading |
|---|---|---|---|---|---|
| 2026-04-20 14:39 | 14.52227 | 121.00791 | 69 ft | 0 kts | 318° |
| 2026-04-20 14:43 | 14.52242 | 121.00777 | 63 ft | 5 kts | 318° |
| 2026-04-20 14:43 | 14.52249 | 121.00771 | 61 ft | 2 kts | 318° |
| 2026-04-20 14:43 | 14.52277 | 121.00745 | 69 ft | 9 kts | 317° |
| 2026-04-20 14:44 | 14.52324 | 121.00699 | 65 ft | 9 kts | 311° |
| 2026-04-20 14:44 | 14.52361 | 121.00656 | 60 ft | 7 kts | 313° |
| 2026-04-20 14:44 | 14.52401 | 121.00616 | 64 ft | 11 kts | 315° |
| 2026-04-20 14:44 | 14.52469 | 121.00545 | 66 ft | 16 kts | 315° |
| 2026-04-20 14:45 | 14.52480 | 121.00484 | 62 ft | 8 kts | 229° |
| 2026-04-20 14:45 | 14.52447 | 121.00445 | 64 ft | 7 kts | 228° |
| 2026-04-20 14:45 | 14.52411 | 121.00407 | 66 ft | 7 kts | 223° |
| 2026-04-20 14:45 | 14.52368 | 121.00393 | 59 ft | 7 kts | 128° |
| 2026-04-20 14:46 | 14.52337 | 121.00429 | 63 ft | 9 kts | 134° |
| 2026-04-20 14:46 | 14.52240 | 121.00531 | 65 ft | 49 kts | 134° |
| 2026-04-20 14:46 | 14.51831 | 121.00955 | 60 ft | 115 kts | 134° |
| 2026-04-20 14:46 | 14.51168 | 121.01651 | 287 ft | 145 kts | 135° |
| 2026-04-20 14:47 | 14.50479 | 121.02395 | 978 ft | 144 kts | 133° |
| 2026-04-20 14:47 | 14.49786 | 121.03117 | 1662 ft | 143 kts | 134° |
| 2026-04-20 14:47 | 14.49053 | 121.03867 | 2114 ft | 157 kts | 134° |
| 2026-04-20 14:48 | 14.47222 | 121.05615 | 2650 ft | 204 kts | 150° |
| 2026-04-20 14:48 | 14.45766 | 121.05917 | 2924 ft | 227 kts | 180° |
| 2026-04-20 14:48 | 14.44106 | 121.05877 | 3270 ft | 251 kts | 180° |
| 2026-04-20 14:48 | 14.42286 | 121.05818 | 3797 ft | 269 kts | 180° |
| 2026-04-20 14:49 | 14.40395 | 121.05752 | 4663 ft | 273 kts | 179° |
| 2026-04-20 14:49 | 14.38488 | 121.05687 | 5514 ft | 276 kts | 179° |
| 2026-04-20 14:49 | 14.36542 | 121.05627 | 6332 ft | 282 kts | 179° |
| 2026-04-20 14:49 | 14.34564 | 121.05570 | 7120 ft | 286 kts | 179° |
| 2026-04-20 14:50 | 14.32556 | 121.05515 | 7932 ft | 290 kts | 179° |
| 2026-04-20 14:50 | 14.30532 | 121.05456 | 8743 ft | 293 kts | 179° |
| 2026-04-20 14:50 | 14.28477 | 121.05396 | 9534 ft | 297 kts | 179° |
| 2026-04-20 14:50 | 14.26391 | 121.05337 | 10190 ft | 307 kts | 179° |
| 2026-04-20 14:51 | 14.24210 | 121.05279 | 10425 ft | 329 kts | 179° |
| 2026-04-20 14:51 | 14.21869 | 121.05216 | 10890 ft | 341 kts | 179° |
| 2026-04-20 14:51 | 14.19480 | 121.05146 | 11546 ft | 346 kts | 180° |
| 2026-04-20 14:51 | 14.17053 | 121.05072 | 12233 ft | 350 kts | 180° |
| 2026-04-20 14:52 | 14.14607 | 121.04999 | 12900 ft | 354 kts | 180° |
| 2026-04-20 14:52 | 14.12129 | 121.04930 | 13547 ft | 359 kts | 179° |
| 2026-04-20 14:52 | 14.09618 | 121.04862 | 14138 ft | 362 kts | 180° |
| 2026-04-20 14:52 | 14.07092 | 121.04790 | 14752 ft | 364 kts | 180° |
| 2026-04-20 14:53 | 14.04554 | 121.04716 | 15325 ft | 366 kts | 181° |
| 2026-04-20 14:53 | 14.01999 | 121.04643 | 15893 ft | 369 kts | 181° |
| 2026-04-20 14:53 | 13.99428 | 121.04571 | 16454 ft | 372 kts | 181° |
| 2026-04-20 14:53 | 13.96838 | 121.04499 | 17018 ft | 374 kts | 181° |
| 2026-04-20 14:54 | 13.94220 | 121.04424 | 17570 ft | 377 kts | 181° |
| 2026-04-20 14:54 | 13.91585 | 121.04347 | 18104 ft | 380 kts | 181° |
| 2026-04-20 14:54 | 13.88932 | 121.04269 | 18582 ft | 383 kts | 181° |
| 2026-04-20 14:54 | 13.86265 | 121.04194 | 19055 ft | 385 kts | 181° |
| 2026-04-20 14:55 | 13.83574 | 121.04120 | 19531 ft | 387 kts | 181° |
| 2026-04-20 14:55 | 13.80875 | 121.04044 | 20011 ft | 389 kts | 181° |
| 2026-04-20 14:55 | 13.78169 | 121.03965 | 20510 ft | 389 kts | 181° |
| 2026-04-20 14:55 | 13.75456 | 121.03886 | 20976 ft | 391 kts | 181° |
| 2026-04-20 14:56 | 13.72728 | 121.03806 | 21444 ft | 393 kts | 181° |
| 2026-04-20 14:56 | 13.69989 | 121.03729 | 21873 ft | 395 kts | 181° |
| 2026-04-20 14:56 | 13.67233 | 121.03653 | 22293 ft | 397 kts | 181° |
| 2026-04-20 14:56 | 13.64463 | 121.03578 | 22736 ft | 399 kts | 181° |
| 2026-04-20 14:57 | 13.61707 | 121.03502 | 23163 ft | 401 kts | 181° |
| 2026-04-20 14:57 | 13.58910 | 121.03423 | 23583 ft | 403 kts | 181° |
| 2026-04-20 14:57 | 13.56094 | 121.03341 | 23921 ft | 405 kts | 181° |
| 2026-04-20 14:57 | 13.53263 | 121.03300 | 24270 ft | 407 kts | 177° |
| 2026-04-20 14:58 | 13.50460 | 121.03699 | 24613 ft | 408 kts | 166° |
| 2026-04-20 14:58 | 13.47766 | 121.04645 | 24960 ft | 411 kts | 156° |
| 2026-04-20 14:58 | 13.45231 | 121.06013 | 25289 ft | 413 kts | 152° |
| 2026-04-20 14:58 | 13.42701 | 121.07428 | 25643 ft | 414 kts | 152° |
| 2026-04-20 14:59 | 13.40157 | 121.08839 | 25998 ft | 416 kts | 153° |
| 2026-04-20 14:59 | 13.37603 | 121.10249 | 26322 ft | 418 kts | 153° |
| 2026-04-20 14:59 | 13.35032 | 121.11664 | 26653 ft | 420 kts | 153° |
| 2026-04-20 14:59 | 13.32448 | 121.13087 | 26972 ft | 422 kts | 153° |
| 2026-04-20 15:00 | 13.29858 | 121.14517 | 27279 ft | 424 kts | 153° |
| 2026-04-20 15:00 | 13.27259 | 121.15954 | 27584 ft | 426 kts | 153° |
| 2026-04-20 15:00 | 13.24645 | 121.17400 | 27887 ft | 428 kts | 153° |
| 2026-04-20 15:00 | 13.22023 | 121.18850 | 28211 ft | 429 kts | 153° |
| 2026-04-20 15:01 | 13.19380 | 121.20310 | 28519 ft | 431 kts | 153° |
| 2026-04-20 15:01 | 13.16738 | 121.21768 | 28822 ft | 433 kts | 153° |
| 2026-04-20 15:01 | 13.14110 | 121.23217 | 29127 ft | 435 kts | 153° |
| 2026-04-20 15:01 | 13.11437 | 121.24691 | 29428 ft | 437 kts | 154° |
| 2026-04-20 15:02 | 13.08751 | 121.26172 | 29729 ft | 439 kts | 154° |
| 2026-04-20 15:02 | 13.06061 | 121.27658 | 30017 ft | 440 kts | 154° |
| 2026-04-20 15:02 | 13.03356 | 121.29151 | 30263 ft | 442 kts | 154° |
| 2026-04-20 15:02 | 13.00644 | 121.30650 | 30503 ft | 443 kts | 154° |
| 2026-04-20 15:03 | 12.97927 | 121.32150 | 30741 ft | 445 kts | 154° |
| 2026-04-20 15:03 | 12.95192 | 121.33656 | 30981 ft | 446 kts | 154° |
| 2026-04-20 15:03 | 12.92452 | 121.35162 | 31221 ft | 447 kts | 154° |
| 2026-04-20 15:03 | 12.89705 | 121.36676 | 31470 ft | 448 kts | 154° |
| 2026-04-20 15:04 | 12.86959 | 121.38190 | 31804 ft | 447 kts | 154° |
| 2026-04-20 15:04 | 12.84229 | 121.39695 | 32157 ft | 445 kts | 154° |
| 2026-04-20 15:04 | 12.81499 | 121.41197 | 32489 ft | 444 kts | 154° |
| 2026-04-20 15:04 | 12.78782 | 121.42688 | 32856 ft | 442 kts | 154° |
| 2026-04-20 15:05 | 12.76074 | 121.44176 | 33210 ft | 441 kts | 154° |
| 2026-04-20 15:05 | 12.73378 | 121.45660 | 33568 ft | 439 kts | 154° |
| 2026-04-20 15:05 | 12.70692 | 121.47138 | 33930 ft | 438 kts | 154° |
| 2026-04-20 15:05 | 12.68009 | 121.48612 | 34233 ft | 437 kts | 154° |
| 2026-04-20 15:06 | 12.65370 | 121.50061 | 34503 ft | 436 kts | 154° |
| 2026-04-20 15:06 | 12.62701 | 121.51529 | 34755 ft | 436 kts | 154° |
| 2026-04-20 15:06 | 12.60019 | 121.53004 | 34926 ft | 437 kts | 154° |
| 2026-04-20 15:07 | 12.54716 | 121.55913 | 34978 ft | 428 kts | 154° |
| 2026-04-20 15:07 | 12.50332 | 121.58320 | 34978 ft | 426 kts | 154° |
| 2026-04-20 15:08 | 12.45111 | 121.61188 | 34978 ft | 426 kts | 154° |
| 2026-04-20 15:08 | 12.39893 | 121.64048 | 34966 ft | 425 kts | 154° |
| 2026-04-20 15:09 | 12.34706 | 121.66884 | 34968 ft | 425 kts | 154° |
| 2026-04-20 15:09 | 12.29494 | 121.69743 | 34967 ft | 425 kts | 154° |
| 2026-04-20 15:10 | 12.24278 | 121.72607 | 34963 ft | 425 kts | 154° |
| 2026-04-20 15:10 | 12.19068 | 121.75457 | 34964 ft | 425 kts | 154° |
| 2026-04-20 15:10 | 12.16412 | 121.76556 | 35536 ft | 386 kts | 186° |
| 2026-04-20 15:11 | 12.13929 | 121.76115 | 36949 ft | 356 kts | 193° |
| 2026-04-20 15:11 | 12.11422 | 121.75902 | 36672 ft | 373 kts | 172° |
| 2026-04-20 15:11 | 12.08903 | 121.76734 | 35852 ft | 393 kts | 150° |
| 2026-04-20 15:11 | 12.06795 | 121.78606 | 35252 ft | 413 kts | 135° |
| 2026-04-20 15:12 | 12.04820 | 121.80806 | 35036 ft | 425 kts | 135° |
| 2026-04-20 15:12 | 12.00710 | 121.85211 | 34959 ft | 428 kts | 144° |
| 2026-04-20 15:13 | 11.95656 | 121.88265 | 34964 ft | 425 kts | 154° |
| 2026-04-20 15:13 | 11.90436 | 121.91104 | 34967 ft | 425 kts | 154° |
| 2026-04-20 15:14 | 11.85211 | 121.93949 | 34964 ft | 426 kts | 154° |
| 2026-04-20 15:14 | 11.79991 | 121.96797 | 34960 ft | 425 kts | 154° |
| 2026-04-20 15:15 | 11.74769 | 121.99648 | 34962 ft | 426 kts | 154° |
| 2026-04-20 15:15 | 11.69549 | 122.02498 | 34960 ft | 425 kts | 154° |
| 2026-04-20 15:16 | 11.64324 | 122.05351 | 34960 ft | 425 kts | 154° |
| 2026-04-20 15:16 | 11.59105 | 122.08191 | 34963 ft | 426 kts | 154° |
| 2026-04-20 15:17 | 11.53869 | 122.11035 | 34959 ft | 426 kts | 154° |
| 2026-04-20 15:17 | 11.48651 | 122.13874 | 34959 ft | 426 kts | 154° |
| 2026-04-20 15:18 | 11.43446 | 122.16705 | 34958 ft | 426 kts | 154° |
| 2026-04-20 15:18 | 11.38208 | 122.19550 | 34963 ft | 427 kts | 154° |
| 2026-04-20 15:19 | 11.32967 | 122.22404 | 34969 ft | 427 kts | 154° |
| 2026-04-20 15:19 | 11.27728 | 122.25256 | 34969 ft | 427 kts | 154° |
| 2026-04-20 15:20 | 11.22481 | 122.28105 | 34971 ft | 427 kts | 154° |
| 2026-04-20 15:20 | 11.17230 | 122.30950 | 34972 ft | 427 kts | 154° |
| 2026-04-20 15:21 | 11.11977 | 122.33795 | 34975 ft | 427 kts | 154° |
| 2026-04-20 15:21 | 11.06725 | 122.36643 | 34969 ft | 428 kts | 154° |
| 2026-04-20 15:22 | 11.01469 | 122.39496 | 34968 ft | 428 kts | 154° |
| 2026-04-20 15:22 | 10.96242 | 122.42335 | 34967 ft | 428 kts | 154° |
| 2026-04-20 15:23 | 10.90978 | 122.45185 | 34961 ft | 428 kts | 154° |
| 2026-04-20 15:23 | 10.85702 | 122.48035 | 34962 ft | 429 kts | 154° |
| 2026-04-20 15:24 | 10.80406 | 122.50810 | 34953 ft | 428 kts | 156° |
| 2026-04-20 15:24 | 10.75000 | 122.53347 | 34947 ft | 428 kts | 158° |
| 2026-04-20 15:25 | 10.69564 | 122.55827 | 34951 ft | 428 kts | 157° |
| 2026-04-20 15:25 | 10.64144 | 122.58367 | 34941 ft | 428 kts | 156° |
| 2026-04-20 15:26 | 10.58740 | 122.60934 | 34945 ft | 429 kts | 156° |
| 2026-04-20 15:26 | 10.53372 | 122.63485 | 34941 ft | 429 kts | 156° |
| 2026-04-20 15:27 | 10.47955 | 122.66046 | 34940 ft | 429 kts | 156° |
| 2026-04-20 15:27 | 10.42496 | 122.68623 | 34935 ft | 430 kts | 156° |
| 2026-04-20 15:28 | 10.37103 | 122.71163 | 34934 ft | 430 kts | 156° |
| 2026-04-20 15:28 | 10.31668 | 122.73726 | 34940 ft | 430 kts | 156° |
| 2026-04-20 15:29 | 10.26239 | 122.76287 | 34938 ft | 430 kts | 156° |
| 2026-04-20 15:29 | 10.20802 | 122.78847 | 34940 ft | 431 kts | 156° |
| 2026-04-20 15:30 | 10.15368 | 122.81408 | 34945 ft | 431 kts | 156° |
| 2026-04-20 15:30 | 10.09918 | 122.83981 | 34949 ft | 431 kts | 156° |
| 2026-04-20 15:31 | 10.04499 | 122.86533 | 34950 ft | 432 kts | 156° |
| 2026-04-20 15:31 | 9.99038 | 122.89096 | 34953 ft | 432 kts | 156° |
| 2026-04-20 15:32 | 9.93582 | 122.91670 | 34956 ft | 432 kts | 156° |
| 2026-04-20 15:32 | 9.88122 | 122.94242 | 34955 ft | 433 kts | 156° |
| 2026-04-20 15:33 | 9.82651 | 122.96810 | 34958 ft | 433 kts | 156° |
| 2026-04-20 15:33 | 9.77185 | 122.99376 | 34958 ft | 433 kts | 156° |
| 2026-04-20 15:34 | 9.72167 | 123.01739 | 34963 ft | 433 kts | 156° |
| 2026-04-20 15:34 | 9.66673 | 123.04326 | 34963 ft | 433 kts | 156° |
| 2026-04-20 15:35 | 9.61220 | 123.06887 | 34969 ft | 433 kts | 156° |
| 2026-04-20 15:35 | 9.55744 | 123.09452 | 34958 ft | 433 kts | 156° |
| 2026-04-20 15:36 | 9.50277 | 123.12018 | 34950 ft | 433 kts | 156° |
| 2026-04-20 15:36 | 9.44805 | 123.14590 | 34944 ft | 433 kts | 156° |
| 2026-04-20 15:37 | 9.39328 | 123.17164 | 34935 ft | 434 kts | 156° |
| 2026-04-20 15:37 | 9.33845 | 123.19725 | 34929 ft | 434 kts | 156° |
| 2026-04-20 15:38 | 9.28393 | 123.22279 | 34931 ft | 434 kts | 156° |
| 2026-04-20 15:38 | 9.22871 | 123.24870 | 34931 ft | 434 kts | 156° |
| 2026-04-20 15:39 | 9.17424 | 123.27426 | 34931 ft | 435 kts | 156° |
| 2026-04-20 15:39 | 9.11920 | 123.30006 | 34941 ft | 435 kts | 156° |
| 2026-04-20 15:40 | 9.06419 | 123.32581 | 34938 ft | 436 kts | 156° |
| 2026-04-20 15:40 | 9.00913 | 123.35158 | 34940 ft | 436 kts | 156° |
| 2026-04-20 15:41 | 8.95400 | 123.37736 | 34943 ft | 436 kts | 156° |
| 2026-04-20 15:41 | 8.89887 | 123.40320 | 34947 ft | 437 kts | 156° |
| 2026-04-20 15:42 | 8.84367 | 123.42902 | 34950 ft | 437 kts | 156° |
| 2026-04-20 15:42 | 8.78855 | 123.45480 | 34950 ft | 436 kts | 156° |
| 2026-04-20 15:43 | 8.73379 | 123.48037 | 34959 ft | 436 kts | 156° |
| 2026-04-20 15:43 | 8.67873 | 123.50600 | 34962 ft | 435 kts | 156° |
| 2026-04-20 15:44 | 8.62370 | 123.53168 | 34959 ft | 436 kts | 156° |
| 2026-04-20 15:44 | 8.56869 | 123.55742 | 34963 ft | 436 kts | 156° |
| 2026-04-20 15:45 | 8.51371 | 123.58318 | 34958 ft | 436 kts | 156° |
| 2026-04-20 15:45 | 8.45862 | 123.60892 | 34958 ft | 436 kts | 156° |
| 2026-04-20 15:46 | 8.40336 | 123.63466 | 34956 ft | 437 kts | 156° |
| 2026-04-20 15:46 | 8.34838 | 123.66031 | 34957 ft | 437 kts | 156° |
| 2026-04-20 15:47 | 8.29318 | 123.68606 | 34961 ft | 438 kts | 156° |
| 2026-04-20 15:47 | 8.23767 | 123.71187 | 34956 ft | 438 kts | 156° |
| 2026-04-20 15:48 | 8.18251 | 123.73756 | 34963 ft | 438 kts | 156° |
| 2026-04-20 15:48 | 8.12700 | 123.76340 | 34961 ft | 439 kts | 156° |
| 2026-04-20 15:49 | 8.07138 | 123.78929 | 34954 ft | 440 kts | 156° |
| 2026-04-20 15:49 | 8.01586 | 123.81514 | 34958 ft | 440 kts | 156° |
| 2026-04-20 15:50 | 7.96026 | 123.84100 | 34957 ft | 440 kts | 156° |
| 2026-04-20 15:50 | 7.90465 | 123.86680 | 34955 ft | 440 kts | 156° |
| 2026-04-20 15:51 | 7.84940 | 123.89251 | 34951 ft | 440 kts | 156° |
| 2026-04-20 15:51 | 7.79368 | 123.91845 | 34952 ft | 440 kts | 156° |
| 2026-04-20 15:52 | 7.73797 | 123.94436 | 34957 ft | 441 kts | 156° |
| 2026-04-20 15:52 | 7.68229 | 123.97028 | 34912 ft | 440 kts | 155° |
| 2026-04-20 15:53 | 7.63641 | 123.99162 | 34207 ft | 434 kts | 156° |
| 2026-04-20 15:53 | 7.60899 | 124.00436 | 33690 ft | 432 kts | 156° |
| 2026-04-20 15:53 | 7.57304 | 124.02105 | 33081 ft | 427 kts | 155° |
| 2026-04-20 15:53 | 7.54626 | 124.03348 | 32654 ft | 421 kts | 155° |
| 2026-04-20 15:54 | 7.51980 | 124.04575 | 32230 ft | 417 kts | 155° |
| 2026-04-20 15:54 | 7.50201 | 124.05400 | 31916 ft | 414 kts | 154° |
| 2026-04-20 15:54 | 7.47593 | 124.06608 | 31477 ft | 411 kts | 154° |
| 2026-04-20 15:54 | 7.44172 | 124.08195 | 30913 ft | 405 kts | 154° |
| 2026-04-20 15:55 | 7.42478 | 124.08981 | 30640 ft | 403 kts | 154° |
| 2026-04-20 15:55 | 7.39914 | 124.10169 | 30217 ft | 399 kts | 154° |
| 2026-04-20 15:55 | 7.37438 | 124.11315 | 29789 ft | 395 kts | 154° |
| 2026-04-20 15:55 | 7.34954 | 124.12466 | 29294 ft | 391 kts | 154° |
| 2026-04-20 15:56 | 7.32491 | 124.13609 | 28800 ft | 388 kts | 154° |
| 2026-04-20 15:56 | 7.30045 | 124.14746 | 28314 ft | 386 kts | 154° |
| 2026-04-20 15:56 | 7.27613 | 124.15874 | 27823 ft | 383 kts | 154° |
| 2026-04-20 15:56 | 7.25202 | 124.16993 | 27352 ft | 380 kts | 154° |
| 2026-04-20 15:57 | 7.22809 | 124.18102 | 26884 ft | 378 kts | 154° |
| 2026-04-20 15:57 | 7.20428 | 124.19208 | 26438 ft | 375 kts | 154° |
| 2026-04-20 15:57 | 7.18062 | 124.20311 | 25989 ft | 373 kts | 153° |
| 2026-04-20 15:57 | 7.15856 | 124.21650 | 25562 ft | 370 kts | 143° |
| 2026-04-20 15:58 | 7.13846 | 124.23265 | 25104 ft | 368 kts | 141° |
| 2026-04-20 15:58 | 7.11860 | 124.24880 | 24675 ft | 367 kts | 141° |
| 2026-04-20 15:58 | 7.09873 | 124.26494 | 24231 ft | 365 kts | 141° |
| 2026-04-20 15:58 | 7.07922 | 124.28076 | 23817 ft | 364 kts | 141° |
| 2026-04-20 15:59 | 7.05951 | 124.29672 | 23384 ft | 362 kts | 141° |
| 2026-04-20 15:59 | 7.03992 | 124.31258 | 22912 ft | 361 kts | 142° |
| 2026-04-20 15:59 | 7.02043 | 124.32837 | 22471 ft | 359 kts | 142° |
| 2026-04-20 15:59 | 7.00103 | 124.34408 | 22030 ft | 357 kts | 142° |
| 2026-04-20 16:00 | 6.98181 | 124.35962 | 21610 ft | 354 kts | 142° |
| 2026-04-20 16:00 | 6.96255 | 124.37518 | 21193 ft | 352 kts | 142° |
| 2026-04-20 16:00 | 6.94356 | 124.39053 | 20782 ft | 350 kts | 142° |
| 2026-04-20 16:00 | 6.92454 | 124.40593 | 20386 ft | 349 kts | 142° |
| 2026-04-20 16:01 | 6.90572 | 124.42120 | 19994 ft | 347 kts | 143° |
| 2026-04-20 16:01 | 6.88698 | 124.43641 | 19637 ft | 344 kts | 143° |
| 2026-04-20 16:01 | 6.86843 | 124.45148 | 19282 ft | 342 kts | 143° |
| 2026-04-20 16:01 | 6.84994 | 124.46650 | 18933 ft | 340 kts | 143° |
| 2026-04-20 16:02 | 6.83163 | 124.48136 | 18581 ft | 338 kts | 143° |
| 2026-04-20 16:02 | 6.81340 | 124.49613 | 18257 ft | 335 kts | 143° |
| 2026-04-20 16:02 | 6.79527 | 124.51078 | 17865 ft | 333 kts | 143° |
| 2026-04-20 16:02 | 6.77726 | 124.52536 | 17486 ft | 331 kts | 143° |
| 2026-04-20 16:03 | 6.75931 | 124.53990 | 17117 ft | 330 kts | 143° |
| 2026-04-20 16:03 | 6.74151 | 124.55429 | 16753 ft | 328 kts | 143° |
| 2026-04-20 16:03 | 6.72373 | 124.56865 | 16393 ft | 327 kts | 143° |
| 2026-04-20 16:03 | 6.70604 | 124.58293 | 16044 ft | 325 kts | 143° |
| 2026-04-20 16:04 | 6.68844 | 124.59718 | 15705 ft | 324 kts | 143° |
| 2026-04-20 16:04 | 6.67094 | 124.61138 | 15371 ft | 323 kts | 143° |
| 2026-04-20 16:04 | 6.65337 | 124.62531 | 15043 ft | 321 kts | 145° |
| 2026-04-20 16:04 | 6.63562 | 124.63886 | 14714 ft | 319 kts | 146° |
| 2026-04-20 16:05 | 6.61782 | 124.65221 | 14404 ft | 318 kts | 146° |
| 2026-04-20 16:05 | 6.60032 | 124.66530 | 14094 ft | 317 kts | 146° |
| 2026-04-20 16:05 | 6.58267 | 124.67850 | 13781 ft | 316 kts | 146° |
| 2026-04-20 16:05 | 6.56512 | 124.69170 | 13434 ft | 315 kts | 146° |
| 2026-04-20 16:06 | 6.54772 | 124.70485 | 13080 ft | 312 kts | 145° |
| 2026-04-20 16:06 | 6.53047 | 124.71794 | 12465 ft | 309 kts | 145° |
| 2026-04-20 16:06 | 6.51344 | 124.73086 | 11857 ft | 306 kts | 144° |
| 2026-04-20 16:06 | 6.49644 | 124.74375 | 11263 ft | 304 kts | 144° |
| 2026-04-20 16:07 | 6.47948 | 124.75660 | 10880 ft | 304 kts | 144° |
| 2026-04-20 16:07 | 6.46266 | 124.76934 | 10551 ft | 302 kts | 144° |
| 2026-04-20 16:07 | 6.44593 | 124.78204 | 10221 ft | 300 kts | 144° |
| 2026-04-20 16:07 | 6.42948 | 124.79452 | 10061 ft | 289 kts | 144° |
| 2026-04-20 16:08 | 6.41400 | 124.80627 | 9916 ft | 271 kts | 144° |
| 2026-04-20 16:08 | 6.39920 | 124.81750 | 9534 ft | 263 kts | 144° |
| 2026-04-20 16:08 | 6.38586 | 124.82940 | 9310 ft | 250 kts | 133° |
| 2026-04-20 16:08 | 6.37559 | 124.84281 | 9187 ft | 235 kts | 126° |
| 2026-04-20 16:09 | 6.36642 | 124.85600 | 8985 ft | 225 kts | 126° |
| 2026-04-20 16:09 | 6.35748 | 124.86876 | 8650 ft | 224 kts | 126° |
| 2026-04-20 16:09 | 6.34839 | 124.88171 | 8279 ft | 229 kts | 126° |
| 2026-04-20 16:09 | 6.33907 | 124.89495 | 7959 ft | 232 kts | 125° |
| 2026-04-20 16:10 | 6.32970 | 124.90828 | 7647 ft | 234 kts | 125° |
| 2026-04-20 16:10 | 6.32034 | 124.92160 | 7328 ft | 230 kts | 125° |
| 2026-04-20 16:10 | 6.31132 | 124.93444 | 7021 ft | 226 kts | 124° |
| 2026-04-20 16:10 | 6.30234 | 124.94720 | 6721 ft | 221 kts | 124° |
| 2026-04-20 16:11 | 6.29369 | 124.95953 | 6445 ft | 210 kts | 124° |
| 2026-04-20 16:11 | 6.28543 | 124.97131 | 6080 ft | 204 kts | 123° |
| 2026-04-20 16:11 | 6.27770 | 124.98338 | 5540 ft | 206 kts | 116° |
| 2026-04-20 16:11 | 6.27227 | 124.99671 | 5013 ft | 207 kts | 105° |
| 2026-04-20 16:12 | 6.26809 | 125.01067 | 4560 ft | 209 kts | 105° |
| 2026-04-20 16:12 | 6.26397 | 125.02419 | 4231 ft | 198 kts | 105° |
| 2026-04-20 16:12 | 6.26015 | 125.03659 | 4170 ft | 175 kts | 105° |
| 2026-04-20 16:12 | 6.25677 | 125.04761 | 4111 ft | 159 kts | 104° |
| 2026-04-20 16:13 | 6.25269 | 125.05793 | 4047 ft | 161 kts | 118° |
| 2026-04-20 16:13 | 6.24593 | 125.06637 | 3984 ft | 152 kts | 134° |
| 2026-04-20 16:13 | 6.23728 | 125.07236 | 3819 ft | 151 kts | 152° |
| 2026-04-20 16:13 | 6.22727 | 125.07559 | 3589 ft | 153 kts | 168° |
| 2026-04-20 16:14 | 6.21668 | 125.07684 | 3376 ft | 153 kts | 171° |
| 2026-04-20 16:14 | 6.20608 | 125.07813 | 3159 ft | 153 kts | 171° |
| 2026-04-20 16:14 | 6.19553 | 125.07942 | 2935 ft | 152 kts | 170° |
| 2026-04-20 16:14 | 6.18507 | 125.08070 | 2722 ft | 151 kts | 171° |
| 2026-04-20 16:15 | 6.17461 | 125.08198 | 2508 ft | 151 kts | 171° |
| 2026-04-20 16:15 | 6.16424 | 125.08325 | 2311 ft | 150 kts | 171° |
| 2026-04-20 16:15 | 6.15395 | 125.08451 | 2112 ft | 150 kts | 171° |
| 2026-04-20 16:15 | 6.14363 | 125.08575 | 1917 ft | 148 kts | 172° |
| 2026-04-20 16:16 | 6.13343 | 125.08696 | 1718 ft | 147 kts | 173° |
| 2026-04-20 16:16 | 6.12322 | 125.08812 | 1528 ft | 147 kts | 172° |
| 2026-04-20 16:16 | 6.11310 | 125.08945 | 1339 ft | 146 kts | 172° |
| 2026-04-20 16:16 | 6.10308 | 125.09077 | 1140 ft | 145 kts | 173° |
| 2026-04-20 16:17 | 6.09311 | 125.09192 | 935 ft | 143 kts | 173° |
| 2026-04-20 16:17 | 6.08334 | 125.09310 | 744 ft | 142 kts | 173° |
| 2026-04-20 16:17 | 6.07352 | 125.09427 | 594 ft | 142 kts | 173° |
| 2026-04-20 16:17 | 6.06394 | 125.09547 | 516 ft | 128 kts | 173° |
| 2026-04-20 16:18 | 6.05677 | 125.09633 | 513 ft | 79 kts | 173° |
| 2026-04-20 16:18 | 6.05418 | 125.09666 | 514 ft | 14 kts | 171° |
| 2026-04-20 16:18 | 6.05398 | 125.09725 | 514 ft | 8 kts | 83° |
| 2026-04-20 16:18 | 6.05403 | 125.09770 | 515 ft | 6 kts | 83° |
| 2026-04-20 16:19 | 6.05408 | 125.09808 | 514 ft | 5 kts | 83° |
| 2026-04-20 16:19 | 6.05412 | 125.09842 | 514 ft | 5 kts | 83° |
| 2026-04-20 16:19 | 6.05416 | 125.09872 | 514 ft | 4 kts | 83° |
| 2026-04-20 16:19 | 6.05423 | 125.09900 | 514 ft | 6 kts | 63° |
| 2026-04-20 16:20 | 6.05475 | 125.09910 | 514 ft | 10 kts | 353° |
| 2026-04-20 16:20 | 6.05533 | 125.09902 | 514 ft | 8 kts | 353° |
| 2026-04-20 16:20 | 6.05583 | 125.09896 | 514 ft | 7 kts | 353° |
| 2026-04-20 16:20 | 6.05626 | 125.09891 | 514 ft | 6 kts | 354° |
| 2026-04-20 16:21 | 6.05661 | 125.09887 | 514 ft | 5 kts | 353° |
| 2026-04-20 16:21 | 6.05690 | 125.09884 | 514 ft | 4 kts | 353° |
| 2026-04-20 16:21 | 6.05716 | 125.09881 | 514 ft | 4 kts | 353° |
| 2026-04-20 16:21 | 6.05743 | 125.09877 | 514 ft | 3 kts | 353° |
| 2026-04-20 16:22 | 6.05764 | 125.09875 | 514 ft | 3 kts | 355° |
| 2026-04-20 16:22 | 6.05781 | 125.09878 | 514 ft | 3 kts | 27° |
| 2026-04-20 16:22 | 6.05785 | 125.09889 | 514 ft | 1 kts | 83° |
| 2026-04-20 16:22 | 6.05778 | 125.09909 | 514 ft | 5 kts | 108° |
| 2026-04-20 16:23 | 6.05778 | 125.09937 | 514 ft | 2 kts | 78° |
| 2026-04-20 16:23 | 6.05779 | 125.09940 | 515 ft | 0 kts | 81° |